首页
METAR-TAF:

METAR-TAF

机场 :

锡特卡, 阿拉斯加州, 美国

纬度: 57-02-53N, 经度: 135-21-53W, 海拔: 6米

当前天气观测

该预报发布于10分钟前的23:53 UTC
风速10节,风向南转南东
温度 10°C
湿度 82%
气压 1011 hPa
能見度: 9.7公里
多云层高于2400英尺
多云层高于3600英尺
阴天层高于4300英尺
小雨

METAR: PASI 312353Z 16010KT 6SM -RA BKN024 BKN036 OVC043 10/07 A2984 RMK AO2 SLP104 P0003 60011 T01000067 10111 20094 51012

时间: 16:03 (00:03 UTC)

预报

该预报发布于22分钟前的23:41 UTC
预报有效从01日的 00点(UTC)到 01日的 24点(UTC)
风速15节,风向,有时为28节阵风
能見度: 8.0公里
多云层高于2400英尺
阴天层高于3000英尺
小雨, 轻雾
从 01日的 1100点(UTC)
风速12节,风向东南
能見度: 9.7公里
阴天层高于2500英尺
小雨

TAF: PASI 312341Z 0100/0124 19015G28KT 5SM -RA BR BKN024 OVC030 FM011100 13012KT 6SM -RA OVC025

超过4000个机场的气象观测和天气预报(METAR&TAF报告)。

可查询的气象台以黄色和红色小点在地图上表示。

将鼠标移到小点上方,可查看气象台名称。

然后点击查看天气观测和预报。

如需切换地图:点击带黑十字的绿色按钮放大地图;点击带横线的绿色按钮缩小地图;或者点击绿色箭头查看邻近地区的地图。


METAR-TAF: